sensor_id;sensor_type;location;lat;lon;timestamp;pressure;altitude;pressure_sealevel;temperature;humidity
20160;BME280;50187;50.492;12.134;2023-11-19T00:01:36;97426.47;;;19.14;38.98
20160;BME280;50187;50.492;12.134;2023-11-19T00:04:22;97410.31;;;19.14;39.04
20160;BME280;50187;50.492;12.134;2023-11-19T00:07:08;97404.06;;;19.13;39.00
20160;BME280;50187;50.492;12.134;2023-11-19T00:09:55;97416.88;;;19.11;38.97
20160;BME280;50187;50.492;12.134;2023-11-19T00:12:42;97408.78;;;19.11;38.94
20160;BME280;50187;50.492;12.134;2023-11-19T00:15:29;97412.13;;;19.13;38.84
20160;BME280;50187;50.492;12.134;2023-11-19T00:18:15;97399.97;;;19.09;39.07
20160;BME280;50187;50.492;12.134;2023-11-19T00:21:00;97409.59;;;19.12;39.03
20160;BME280;50187;50.492;12.134;2023-11-19T00:23:46;97402.22;;;19.14;38.94
20160;BME280;50187;50.492;12.134;2023-11-19T00:26:32;97409.59;;;19.12;38.72
20160;BME280;50187;50.492;12.134;2023-11-19T00:29:17;97398.66;;;19.13;38.80
20160;BME280;50187;50.492;12.134;2023-11-19T00:32:04;97391.44;;;19.14;38.91
20160;BME280;50187;50.492;12.134;2023-11-19T00:34:51;97386.38;;;19.11;38.98
20160;BME280;50187;50.492;12.134;2023-11-19T00:37:36;97387.88;;;19.13;38.95
20160;BME280;50187;50.492;12.134;2023-11-19T00:40:21;97379.94;;;19.12;39.06
20160;BME280;50187;50.492;12.134;2023-11-19T00:43:08;97370.31;;;19.09;39.08
20160;BME280;50187;50.492;12.134;2023-11-19T00:45:53;97371.03;;;19.11;38.83
20160;BME280;50187;50.492;12.134;2023-11-19T00:48:39;97370.03;;;19.12;38.86
20160;BME280;50187;50.492;12.134;2023-11-19T00:51:25;97379.13;;;19.11;38.90
20160;BME280;50187;50.492;12.134;2023-11-19T00:54:11;97366.47;;;19.12;38.82
20160;BME280;50187;50.492;12.134;2023-11-19T00:56:56;97354.03;;;19.11;39.12
20160;BME280;50187;50.492;12.134;2023-11-19T00:59:43;97342.88;;;19.05;39.09
20160;BME280;50187;50.492;12.134;2023-11-19T01:02:28;97347.75;;;19.10;39.01
20160;BME280;50187;50.492;12.134;2023-11-19T01:05:14;97343.22;;;19.11;38.98
20160;BME280;50187;50.492;12.134;2023-11-19T01:07:59;97335.81;;;19.13;39.04
20160;BME280;50187;50.492;12.134;2023-11-19T01:10:45;97322.50;;;19.11;38.96
20160;BME280;50187;50.492;12.134;2023-11-19T01:13:30;97344.41;;;19.08;38.93
20160;BME280;50187;50.492;12.134;2023-11-19T01:16:15;97343.53;;;19.08;39.03
20160;BME280;50187;50.492;12.134;2023-11-19T01:19:01;97325.00;;;19.04;38.82
20160;BME280;50187;50.492;12.134;2023-11-19T01:22:01;97326.00;;;19.03;38.89
20160;BME280;50187;50.492;12.134;2023-11-19T01:24:47;97332.06;;;19.05;38.74
20160;BME280;50187;50.492;12.134;2023-11-19T01:27:33;97312.34;;;18.97;38.90
20160;BME280;50187;50.492;12.134;2023-11-19T01:30:21;97308.97;;;19.03;38.72
20160;BME280;50187;50.492;12.134;2023-11-19T01:33:07;97308.16;;;19.02;38.77
20160;BME280;50187;50.492;12.134;2023-11-19T01:35:52;97296.50;;;19.02;38.91
20160;BME280;50187;50.492;12.134;2023-11-19T01:38:38;97289.44;;;19.01;38.81
20160;BME280;50187;50.492;12.134;2023-11-19T01:41:23;97282.34;;;19.00;38.63
20160;BME280;50187;50.492;12.134;2023-11-19T01:44:10;97282.34;;;19.00;38.63
20160;BME280;50187;50.492;12.134;2023-11-19T01:46:57;97273.94;;;19.03;38.57
20160;BME280;50187;50.492;12.134;2023-11-19T01:49:43;97269.38;;;19.03;38.63
20160;BME280;50187;50.492;12.134;2023-11-19T01:52:28;97267.88;;;19.01;38.60
20160;BME280;50187;50.492;12.134;2023-11-19T01:55:15;97244.94;;;18.97;38.64
20160;BME280;50187;50.492;12.134;2023-11-19T01:58:01;97258.94;;;19.00;38.39
20160;BME280;50187;50.492;12.134;2023-11-19T02:00:46;97265.47;;;18.98;38.41
20160;BME280;50187;50.492;12.134;2023-11-19T02:03:33;97251.84;;;18.99;38.30
20160;BME280;50187;50.492;12.134;2023-11-19T02:06:19;97246.78;;;18.96;38.60
20160;BME280;50187;50.492;12.134;2023-11-19T02:09:05;97245.94;;;18.96;38.29
20160;BME280;50187;50.492;12.134;2023-11-19T02:11:53;97243.59;;;18.93;38.56
20160;BME280;50187;50.492;12.134;2023-11-19T02:14:39;97230.94;;;18.93;38.69
20160;BME280;50187;50.492;12.134;2023-11-19T02:17:27;97227.09;;;18.96;38.63
20160;BME280;50187;50.492;12.134;2023-11-19T02:20:13;97222.34;;;18.98;38.71
20160;BME280;50187;50.492;12.134;2023-11-19T02:23:00;97211.91;;;18.95;38.62
20160;BME280;50187;50.492;12.134;2023-11-19T02:29:12;97217.31;;;18.95;38.46
20160;BME280;50187;50.492;12.134;2023-11-19T02:31:57;97201.13;;;18.95;38.18
20160;BME280;50187;50.492;12.134;2023-11-19T02:34:43;97198.78;;;18.92;38.62
20160;BME280;50187;50.492;12.134;2023-11-19T02:37:28;97198.44;;;18.95;38.18
20160;BME280;50187;50.492;12.134;2023-11-19T02:40:14;97189.03;;;18.99;38.33
20160;BME280;50187;50.492;12.134;2023-11-19T02:42:59;97194.41;;;18.99;38.10
20160;BME280;50187;50.492;12.134;2023-11-19T02:45:45;97180.09;;;18.98;38.12
20160;BME280;50187;50.492;12.134;2023-11-19T02:48:31;97168.63;;;18.96;38.38
20160;BME280;50187;50.492;12.134;2023-11-19T02:51:16;97167.44;;;18.99;38.22
20160;BME280;50187;50.492;12.134;2023-11-19T02:54:03;97151.28;;;18.99;38.21
20160;BME280;50187;50.492;12.134;2023-11-19T02:56:48;97167.44;;;18.99;38.34
20160;BME280;50187;50.492;12.134;2023-11-19T02:59:40;97148.41;;;19.00;38.34
20160;BME280;50187;50.492;12.134;2023-11-19T03:02:28;97141.03;;;19.02;38.46
20160;BME280;50187;50.492;12.134;2023-11-19T03:05:19;97140.69;;;19.05;38.26
20160;BME280;50187;50.492;12.134;2023-11-19T03:08:05;97128.91;;;19.07;38.21
20160;BME280;50187;50.492;12.134;2023-11-19T03:10:50;97121.00;;;19.05;38.33
20160;BME280;50187;50.492;12.134;2023-11-19T03:13:35;97140.88;;;19.04;38.16
20160;BME280;50187;50.492;12.134;2023-11-19T03:16:20;97122.47;;;18.99;38.28
20160;BME280;50187;50.492;12.134;2023-11-19T03:19:06;97114.38;;;18.99;38.18
20160;BME280;50187;50.492;12.134;2023-11-19T03:21:51;97122.31;;;19.01;38.30
20160;BME280;50187;50.492;12.134;2023-11-19T03:24:38;97112.38;;;19.01;38.20
20160;BME280;50187;50.492;12.134;2023-11-19T03:27:23;97096.53;;;18.98;38.46
20160;BME280;50187;50.492;12.134;2023-11-19T03:30:09;97091.31;;;18.97;38.26
20160;BME280;50187;50.492;12.134;2023-11-19T03:32:55;97101.06;;;18.98;38.24
20160;BME280;50187;50.492;12.134;2023-11-19T03:35:41;97115.41;;;18.98;38.47
20160;BME280;50187;50.492;12.134;2023-11-19T03:38:26;97102.78;;;18.99;38.62
20160;BME280;50187;50.492;12.134;2023-11-19T03:41:15;97088.63;;;18.97;38.37
20160;BME280;50187;50.492;12.134;2023-11-19T03:44:02;97112.88;;;18.97;38.57
20160;BME280;50187;50.492;12.134;2023-11-19T03:46:48;97102.94;;;18.97;38.44
20160;BME280;50187;50.492;12.134;2023-11-19T03:49:34;97102.78;;;18.99;38.53
20160;BME280;50187;50.492;12.134;2023-11-19T03:52:20;97092.00;;;18.99;38.61
20160;BME280;50187;50.492;12.134;2023-11-19T03:55:06;97085.44;;;19.01;38.34
20160;BME280;50187;50.492;12.134;2023-11-19T03:57:53;97077.16;;;19.03;38.60
20160;BME280;50187;50.492;12.134;2023-11-19T04:00:39;97075.81;;;18.99;38.62
20160;BME280;50187;50.492;12.134;2023-11-19T04:03:26;97066.03;;;18.98;38.49
20160;BME280;50187;50.492;12.134;2023-11-19T04:06:11;97082.56;;;19.03;38.32
20160;BME280;50187;50.492;12.134;2023-11-19T04:08:56;97069.44;;;19.00;38.45
20160;BME280;50187;50.492;12.134;2023-11-19T04:11:41;97075.47;;;19.02;38.48
20160;BME280;50187;50.492;12.134;2023-11-19T04:14:26;97064.03;;;19.00;38.40
20160;BME280;50187;50.492;12.134;2023-11-19T04:17:12;97069.44;;;19.00;38.54
20160;BME280;50187;50.492;12.134;2023-11-19T04:19:57;97060.66;;;18.98;38.60
20160;BME280;50187;50.492;12.134;2023-11-19T04:22:42;97045.50;;;18.97;38.57
20160;BME280;50187;50.492;12.134;2023-11-19T04:25:28;97042.81;;;18.97;38.47
20160;BME280;50187;50.492;12.134;2023-11-19T04:28:13;97034.91;;;18.95;38.51
20160;BME280;50187;50.492;12.134;2023-11-19T04:30:59;97043.81;;;18.96;38.55
20160;BME280;50187;50.492;12.134;2023-11-19T04:33:44;97031.16;;;18.96;38.55
20160;BME280;50187;50.492;12.134;2023-11-19T04:36:29;97031.00;;;18.98;38.68
20160;BME280;50187;50.492;12.134;2023-11-19T04:39:15;97023.94;;;18.97;38.62
20160;BME280;50187;50.492;12.134;2023-11-19T04:42:00;97027.47;;;18.97;38.47
20160;BME280;50187;50.492;12.134;2023-11-19T04:44:46;97048.84;;;18.91;38.71
20160;BME280;50187;50.492;12.134;2023-11-19T04:47:31;97022.25;;;18.87;38.86
20160;BME280;50187;50.492;12.134;2023-11-19T04:50:17;97036.06;;;18.93;38.57
20160;BME280;50187;50.492;12.134;2023-11-19T04:53:03;97034.22;;;18.93;38.81
20160;BME280;50187;50.492;12.134;2023-11-19T04:55:48;97029.66;;;18.94;38.79
20160;BME280;50187;50.492;12.134;2023-11-19T04:58:34;97031.69;;;18.92;38.74
20160;BME280;50187;50.492;12.134;2023-11-19T05:01:21;97032.22;;;18.95;38.87
20160;BME280;50187;50.492;12.134;2023-11-19T05:04:07;97040.13;;;19.05;38.58
20160;BME280;50187;50.492;12.134;2023-11-19T05:06:53;97024.44;;;19.09;38.56
20160;BME280;50187;50.492;12.134;2023-11-19T05:09:39;97018.53;;;19.13;38.70
20160;BME280;50187;50.492;12.134;2023-11-19T05:12:23;97032.00;;;19.21;38.44
20160;BME280;50187;50.492;12.134;2023-11-19T05:15:09;97028.78;;;19.26;38.38
20160;BME280;50187;50.492;12.134;2023-11-19T05:17:57;97029.31;;;19.30;38.46
20160;BME280;50187;50.492;12.134;2023-11-19T05:20:42;97025.09;;;19.35;38.11
20160;BME280;50187;50.492;12.134;2023-11-19T05:23:27;97026.63;;;19.38;38.27
20160;BME280;50187;50.492;12.134;2023-11-19T05:26:23;97015.47;;;19.41;38.30
20160;BME280;50187;50.492;12.134;2023-11-19T05:29:09;97012.59;;;19.43;38.29
20160;BME280;50187;50.492;12.134;2023-11-19T05:31:54;97013.94;;;19.47;38.32
20160;BME280;50187;50.492;12.134;2023-11-19T05:34:40;96998.78;;;19.46;38.05
20160;BME280;50187;50.492;12.134;2023-11-19T05:37:28;96986.97;;;19.47;38.16
20160;BME280;50187;50.492;12.134;2023-11-19T05:40:14;97004.69;;;19.49;38.16
20160;BME280;50187;50.492;12.134;2023-11-19T05:43:01;96991.00;;;19.51;38.04
20160;BME280;50187;50.492;12.134;2023-11-19T05:45:46;96977.69;;;19.49;38.25
20160;BME280;50187;50.492;12.134;2023-11-19T05:48:32;96980.03;;;19.52;38.17
20160;BME280;50187;50.492;12.134;2023-11-19T05:51:17;96980.22;;;19.51;37.97
20160;BME280;50187;50.492;12.134;2023-11-19T05:54:03;96985.78;;;19.49;38.14
20160;BME280;50187;50.492;12.134;2023-11-19T05:56:48;96968.94;;;19.47;38.07
20160;BME280;50187;50.492;12.134;2023-11-19T05:59:38;96964.06;;;19.43;38.38
20160;BME280;50187;50.492;12.134;2023-11-19T06:02:24;96957.16;;;19.40;38.37
20160;BME280;50187;50.492;12.134;2023-11-19T06:05:09;96956.97;;;19.42;38.39
20160;BME280;50187;50.492;12.134;2023-11-19T06:07:54;96958.19;;;19.39;38.47
20160;BME280;50187;50.492;12.134;2023-11-19T06:10:40;96944.00;;;19.37;38.30
20160;BME280;50187;50.492;12.134;2023-11-19T06:13:25;96951.44;;;19.35;38.24
20160;BME280;50187;50.492;12.134;2023-11-19T06:16:11;96941.84;;;19.32;38.65
20160;BME280;50187;50.492;12.134;2023-11-19T06:18:57;96962.25;;;19.35;38.37
20160;BME280;50187;50.492;12.134;2023-11-19T06:21:43;96972.16;;;19.34;38.36
20160;BME280;50187;50.492;12.134;2023-11-19T06:24:28;96978.41;;;19.35;38.50
20160;BME280;50187;50.492;12.134;2023-11-19T06:27:13;96976.38;;;19.29;38.36
20160;BME280;50187;50.492;12.134;2023-11-19T06:29:59;96970.66;;;19.32;38.78
20160;BME280;50187;50.492;12.134;2023-11-19T06:32:45;96981.44;;;19.32;38.58
20160;BME280;50187;50.492;12.134;2023-11-19T06:35:30;96977.91;;;19.31;38.45
20160;BME280;50187;50.492;12.134;2023-11-19T06:38:21;96983.97;;;19.33;38.54
20160;BME280;50187;50.492;12.134;2023-11-19T06:41:07;96989.38;;;19.33;38.72
20160;BME280;50187;50.492;12.134;2023-11-19T06:43:53;96985.81;;;19.33;38.51
20160;BME280;50187;50.492;12.134;2023-11-19T06:46:39;96984.13;;;19.32;38.58
20160;BME280;50187;50.492;12.134;2023-11-19T06:49:25;96991.56;;;19.30;38.76
20160;BME280;50187;50.492;12.134;2023-11-19T06:52:10;96986.34;;;19.28;38.48
20160;BME280;50187;50.492;12.134;2023-11-19T06:54:55;96987.34;;;19.27;38.62
20160;BME280;50187;50.492;12.134;2023-11-19T06:57:52;96982.13;;;19.26;38.81
20160;BME280;50187;50.492;12.134;2023-11-19T07:00:37;96984.47;;;19.29;38.72
20160;BME280;50187;50.492;12.134;2023-11-19T07:03:23;96972.88;;;19.20;38.63
20160;BME280;50187;50.492;12.134;2023-11-19T07:06:10;96993.25;;;19.22;38.67
20160;BME280;50187;50.492;12.134;2023-11-19T07:08:55;96981.47;;;19.24;38.82
20160;BME280;50187;50.492;12.134;2023-11-19T07:11:41;96992.44;;;19.22;38.84
20160;BME280;50187;50.492;12.134;2023-11-19T07:14:27;96986.00;;;19.23;38.76
20160;BME280;50187;50.492;12.134;2023-11-19T07:17:12;96985.19;;;19.22;38.77
20160;BME280;50187;50.492;12.134;2023-11-19T07:19:58;96989.72;;;19.22;39.03
20160;BME280;50187;50.492;12.134;2023-11-19T07:22:45;96991.75;;;19.20;39.11
20160;BME280;50187;50.492;12.134;2023-11-19T07:25:30;96988.56;;;19.16;39.02
20160;BME280;50187;50.492;12.134;2023-11-19T07:28:16;96988.56;;;19.16;38.85
20160;BME280;50187;50.492;12.134;2023-11-19T07:31:01;96985.69;;;19.18;39.13
20160;BME280;50187;50.492;12.134;2023-11-19T07:33:47;96997.13;;;19.20;39.16
20160;BME280;50187;50.492;12.134;2023-11-19T07:36:32;96996.78;;;19.15;38.92
20160;BME280;50187;50.492;12.134;2023-11-19T07:39:18;97001.69;;;19.19;38.81
20160;BME280;50187;50.492;12.134;2023-11-19T07:42:06;97000.66;;;19.20;39.07
20160;BME280;50187;50.492;12.134;2023-11-19T07:44:51;96990.91;;;19.19;39.00
20160;BME280;50187;50.492;12.134;2023-11-19T07:47:36;96999.00;;;19.19;39.08
20160;BME280;50187;50.492;12.134;2023-11-19T07:50:23;97007.91;;;19.20;38.84
20160;BME280;50187;50.492;12.134;2023-11-19T07:53:09;96993.59;;;19.19;38.83
20160;BME280;50187;50.492;12.134;2023-11-19T07:55:55;96994.97;;;19.15;39.08
20160;BME280;50187;50.492;12.134;2023-11-19T07:58:40;96993.59;;;19.19;39.16
20160;BME280;50187;50.492;12.134;2023-11-19T08:01:26;96979.09;;;19.20;38.82
20160;BME280;50187;50.492;12.134;2023-11-19T08:04:11;97004.88;;;19.23;38.97
20160;BME280;50187;50.492;12.134;2023-11-19T08:06:57;96994.25;;;19.21;38.90
20160;BME280;50187;50.492;12.134;2023-11-19T08:09:42;96997.31;;;19.18;39.32
20160;BME280;50187;50.492;12.134;2023-11-19T08:12:28;96992.75;;;19.19;39.28
20160;BME280;50187;50.492;12.134;2023-11-19T08:15:13;96998.13;;;19.19;39.19
20160;BME280;50187;50.492;12.134;2023-11-19T08:17:58;96997.47;;;19.17;39.08
20160;BME280;50187;50.492;12.134;2023-11-19T08:20:44;96990.91;;;19.11;39.28
20160;BME280;50187;50.492;12.134;2023-11-19T08:23:30;96995.78;;;19.16;39.08
20160;BME280;50187;50.492;12.134;2023-11-19T08:26:15;96997.66;;;19.15;38.92
20160;BME280;50187;50.492;12.134;2023-11-19T08:29:05;96990.91;;;19.19;39.04
20160;BME280;50187;50.492;12.134;2023-11-19T08:31:51;96999.19;;;19.18;39.27
20160;BME280;50187;50.492;12.134;2023-11-19T08:34:36;96990.06;;;19.19;39.01
20160;BME280;50187;50.492;12.134;2023-11-19T08:37:21;97000.00;;;19.18;38.95
20160;BME280;50187;50.492;12.134;2023-11-19T08:40:09;96992.75;;;19.19;39.20
20160;BME280;50187;50.492;12.134;2023-11-19T08:42:54;96997.13;;;19.20;39.03
20160;BME280;50187;50.492;12.134;2023-11-19T08:45:39;96983.47;;;19.21;38.96
20160;BME280;50187;50.492;12.134;2023-11-19T08:48:24;96990.91;;;19.19;39.26
20160;BME280;50187;50.492;12.134;2023-11-19T08:51:12;96979.63;;;19.16;39.04
20160;BME280;50187;50.492;12.134;2023-11-19T08:53:57;96985.88;;;19.16;39.30
20160;BME280;50187;50.492;12.134;2023-11-19T08:56:42;96980.13;;;19.19;39.30
20160;BME280;50187;50.492;12.134;2023-11-19T08:59:29;96989.06;;;19.20;39.35
20160;BME280;50187;50.492;12.134;2023-11-19T09:02:14;96983.47;;;19.21;39.09
20160;BME280;50187;50.492;12.134;2023-11-19T09:05:01;96972.69;;;19.21;39.40
20160;BME280;50187;50.492;12.134;2023-11-19T09:07:47;96971.69;;;19.14;39.06
20160;BME280;50187;50.492;12.134;2023-11-19T09:10:32;96981.97;;;19.19;39.28
20160;BME280;50187;50.492;12.134;2023-11-19T09:13:17;96970.34;;;19.27;39.38
20160;BME280;50187;50.492;12.134;2023-11-19T09:16:03;96966.31;;;19.22;39.14
20160;BME280;50187;50.492;12.134;2023-11-19T09:18:49;96974.38;;;19.22;39.41
20160;BME280;50187;50.492;12.134;2023-11-19T09:21:35;96977.75;;;19.25;39.50
20160;BME280;50187;50.492;12.134;2023-11-19T09:24:23;96982.81;;;19.19;39.46
20160;BME280;50187;50.492;12.134;2023-11-19T09:27:08;96977.44;;;19.19;39.20
20160;BME280;50187;50.492;12.134;2023-11-19T09:29:54;96993.78;;;19.18;39.47
20160;BME280;50187;50.492;12.134;2023-11-19T09:32:42;96989.06;;;19.20;39.56
20160;BME280;50187;50.492;12.134;2023-11-19T09:35:28;96964.97;;;19.18;39.51
20160;BME280;50187;50.492;12.134;2023-11-19T09:38:13;96960.03;;;19.30;39.44
20160;BME280;50187;50.492;12.134;2023-11-19T09:40:59;96972.50;;;19.39;39.26
20160;BME280;50187;50.492;12.134;2023-11-19T09:43:53;96974.50;;;19.46;39.25
20160;BME280;50187;50.492;12.134;2023-11-19T09:46:40;96961.84;;;19.54;39.08
20160;BME280;50187;50.492;12.134;2023-11-19T09:49:27;96976.16;;;19.63;38.69
20160;BME280;50187;50.492;12.134;2023-11-19T09:52:15;96955.38;;;19.72;38.34
20160;BME280;50187;50.492;12.134;2023-11-19T09:55:01;96960.59;;;19.73;38.51
20160;BME280;50187;50.492;12.134;2023-11-19T09:57:48;96971.88;;;19.77;38.30
20160;BME280;50187;50.492;12.134;2023-11-19T10:00:35;96968.34;;;19.85;38.31
20160;BME280;50187;50.492;12.134;2023-11-19T10:03:23;96956.66;;;19.93;38.35
20160;BME280;50187;50.492;12.134;2023-11-19T10:06:10;96965.56;;;20.01;37.76
20160;BME280;50187;50.492;12.134;2023-11-19T10:08:55;96959.44;;;20.07;38.18
20160;BME280;50187;50.492;12.134;2023-11-19T10:11:41;96950.81;;;20.12;37.90
20160;BME280;50187;50.492;12.134;2023-11-19T10:14:27;96938.44;;;20.18;37.57
20160;BME280;50187;50.492;12.134;2023-11-19T10:17:13;96942.63;;;20.29;37.62
20160;BME280;50187;50.492;12.134;2023-11-19T10:19:58;96947.31;;;20.35;37.54
20160;BME280;50187;50.492;12.134;2023-11-19T10:22:44;96963.81;;;20.40;37.59
20160;BME280;50187;50.492;12.134;2023-11-19T10:25:32;96961.44;;;20.45;37.27
20160;BME280;50187;50.492;12.134;2023-11-19T10:28:18;96959.00;;;20.50;37.28
20160;BME280;50187;50.492;12.134;2023-11-19T10:31:05;96963.03;;;20.54;37.27
20160;BME280;50187;50.492;12.134;2023-11-19T10:33:50;96959.13;;;20.57;37.02
20160;BME280;50187;50.492;12.134;2023-11-19T10:36:39;96959.81;;;20.59;37.14
20160;BME280;50187;50.492;12.134;2023-11-19T10:39:51;96965.88;;;20.61;37.07
20160;BME280;50187;50.492;12.134;2023-11-19T10:42:39;96957.38;;;20.64;37.21
20160;BME280;50187;50.492;12.134;2023-11-19T10:45:25;96944.94;;;20.63;37.05
20160;BME280;50187;50.492;12.134;2023-11-19T10:48:10;96938.47;;;20.64;37.01
20160;BME280;50187;50.492;12.134;2023-11-19T10:50:57;96937.13;;;20.68;37.07
20160;BME280;50187;50.492;12.134;2023-11-19T10:53:43;96936.94;;;20.70;37.16
20160;BME280;50187;50.492;12.134;2023-11-19T10:56:31;96917.50;;;20.74;37.11
20160;BME280;50187;50.492;12.134;2023-11-19T10:59:18;96919.53;;;20.72;36.98
20160;BME280;50187;50.492;12.134;2023-11-19T11:02:09;96928.94;;;20.76;36.78
20160;BME280;50187;50.492;12.134;2023-11-19T11:04:56;96929.44;;;20.80;36.83
20160;BME280;50187;50.492;12.134;2023-11-19T11:07:44;96926.56;;;20.82;36.73
20160;BME280;50187;50.492;12.134;2023-11-19T11:10:32;96930.47;;;20.79;36.81
20160;BME280;50187;50.492;12.134;2023-11-19T11:13:25;96923.84;;;20.82;36.73
20160;BME280;50187;50.492;12.134;2023-11-19T11:16:10;96923.09;;;20.88;36.96
20160;BME280;50187;50.492;12.134;2023-11-19T11:18:56;96912.97;;;20.90;36.68
20160;BME280;50187;50.492;12.134;2023-11-19T11:21:44;96910.44;;;20.88;36.69
20160;BME280;50187;50.492;12.134;2023-11-19T11:24:45;96919.84;;;20.92;36.85
20160;BME280;50187;50.492;12.134;2023-11-19T11:28:05;96923.22;;;20.95;36.59
20160;BME280;50187;50.492;12.134;2023-11-19T11:31:13;96925.75;;;20.96;36.89
20160;BME280;50187;50.492;12.134;2023-11-19T11:39:49;96932.47;;;21.00;36.59
20160;BME280;50187;50.492;12.134;2023-11-19T11:42:36;96917.44;;;20.98;36.42
20160;BME280;50187;50.492;12.134;2023-11-19T11:45:35;96924.34;;;21.00;36.73
20160;BME280;50187;50.492;12.134;2023-11-19T11:48:22;96922.47;;;21.01;36.81
20160;BME280;50187;50.492;12.134;2023-11-19T11:51:09;96928.94;;;21.00;36.73
20160;BME280;50187;50.492;12.134;2023-11-19T11:53:58;96923.03;;;20.96;36.75
20160;BME280;50187;50.492;12.134;2023-11-19T11:57:01;96929.75;;;21.00;36.83
20160;BME280;50187;50.492;12.134;2023-11-19T11:59:49;96940.56;;;21.00;36.79
20160;BME280;50187;50.492;12.134;2023-11-19T12:02:35;96940.75;;;20.99;36.58
20160;BME280;50187;50.492;12.134;2023-11-19T12:05:21;96927.25;;;20.99;36.75
20160;BME280;50187;50.492;12.134;2023-11-19T12:08:07;96927.25;;;20.99;36.64
20160;BME280;50187;50.492;12.134;2023-11-19T12:10:57;96942.44;;;21.00;36.63
20160;BME280;50187;50.492;12.134;2023-11-19T12:13:55;96929.94;;;20.99;36.79
20160;BME280;50187;50.492;12.134;2023-11-19T12:16:43;96926.22;;;21.00;36.53
20160;BME280;50187;50.492;12.134;2023-11-19T12:19:29;96917.25;;;20.99;36.77
20160;BME280;50187;50.492;12.134;2023-11-19T12:22:14;96922.56;;;20.92;36.50
20160;BME280;50187;50.492;12.134;2023-11-19T12:24:59;96923.00;;;20.81;36.67
20160;BME280;50187;50.492;12.134;2023-11-19T12:27:47;96921.22;;;20.73;37.00
20160;BME280;50187;50.492;12.134;2023-11-19T12:30:33;96913.50;;;20.62;37.24
20160;BME280;50187;50.492;12.134;2023-11-19T12:33:18;96917.47;;;20.51;37.18
20160;BME280;50187;50.492;12.134;2023-11-19T12:36:05;96922.66;;;20.38;37.49
20160;BME280;50187;50.492;12.134;2023-11-19T12:38:51;96934.16;;;20.32;37.69
20160;BME280;50187;50.492;12.134;2023-11-19T12:41:50;96906.91;;;20.18;37.96
20160;BME280;50187;50.492;12.134;2023-11-19T12:44:36;96920.59;;;20.17;37.95
20160;BME280;50187;50.492;12.134;2023-11-19T12:47:21;96918.59;;;20.11;37.97
20160;BME280;50187;50.492;12.134;2023-11-19T12:50:07;96923.69;;;20.05;38.15
20160;BME280;50187;50.492;12.134;2023-11-19T12:52:57;96916.13;;;20.01;38.33
20160;BME280;50187;50.492;12.134;2023-11-19T12:55:43;96929.78;;;19.99;38.05
20160;BME280;50187;50.492;12.134;2023-11-19T12:58:35;96917.00;;;19.93;38.41
20160;BME280;50187;50.492;12.134;2023-11-19T13:01:24;96919.72;;;19.93;38.23
20160;BME280;50187;50.492;12.134;2023-11-19T13:04:17;96926.66;;;19.87;38.63
20160;BME280;50187;50.492;12.134;2023-11-19T13:07:03;96938.28;;;19.88;38.39
20160;BME280;50187;50.492;12.134;2023-11-19T13:09:51;96947.25;;;19.88;38.52
20160;BME280;50187;50.492;12.134;2023-11-19T13:12:42;96945.72;;;19.86;38.66
20160;BME280;50187;50.492;12.134;2023-11-19T13:15:28;96945.72;;;19.86;38.46
20160;BME280;50187;50.492;12.134;2023-11-19T13:18:16;96935.13;;;19.84;38.66
20160;BME280;50187;50.492;12.134;2023-11-19T13:21:02;96944.88;;;19.85;38.66
20160;BME280;50187;50.492;12.134;2023-11-19T13:23:47;96946.75;;;19.85;38.53
20160;BME280;50187;50.492;12.134;2023-11-19T13:26:33;96945.91;;;19.84;38.61
20160;BME280;50187;50.492;12.134;2023-11-19T13:29:18;96945.06;;;19.84;38.47
20160;BME280;50187;50.492;12.134;2023-11-19T13:32:03;96952.66;;;19.80;38.54
20160;BME280;50187;50.492;12.134;2023-11-19T13:34:50;96950.13;;;19.79;38.74
20160;BME280;50187;50.492;12.134;2023-11-19T13:37:35;96944.56;;;19.80;38.61
20160;BME280;50187;50.492;12.134;2023-11-19T13:40:21;96937.50;;;19.79;38.52
20160;BME280;50187;50.492;12.134;2023-11-19T13:43:07;96936.81;;;19.77;38.93
20160;BME280;50187;50.492;12.134;2023-11-19T13:45:53;96937.81;;;19.76;38.90
20160;BME280;50187;50.492;12.134;2023-11-19T13:48:39;96950.63;;;19.74;38.72
20160;BME280;50187;50.492;12.134;2023-11-19T13:51:24;96934.09;;;19.77;38.65
20160;BME280;50187;50.492;12.134;2023-11-19T13:54:10;96935.13;;;19.76;38.92
20160;BME280;50187;50.492;12.134;2023-11-19T13:56:55;96927.03;;;19.76;38.92
20160;BME280;50187;50.492;12.134;2023-11-19T13:59:42;96921.97;;;19.73;38.73
20160;BME280;50187;50.492;12.134;2023-11-19T14:02:27;96915.72;;;19.72;38.88
20160;BME280;50187;50.492;12.134;2023-11-19T14:05:13;96918.59;;;19.71;39.01
20160;BME280;50187;50.492;12.134;2023-11-19T14:07:58;96934.44;;;19.74;38.96
20160;BME280;50187;50.492;12.134;2023-11-19T14:10:44;96938.00;;;19.74;38.66
20160;BME280;50187;50.492;12.134;2023-11-19T14:13:29;96929.41;;;19.71;38.88
20160;BME280;50187;50.492;12.134;2023-11-19T14:16:15;96931.91;;;19.72;38.94
20160;BME280;50187;50.492;12.134;2023-11-19T14:19:01;96935.66;;;19.71;38.95
20160;BME280;50187;50.492;12.134;2023-11-19T14:21:46;96931.25;;;19.70;39.09
20160;BME280;50187;50.492;12.134;2023-11-19T14:24:32;96925.19;;;19.68;39.10
20160;BME280;50187;50.492;12.134;2023-11-19T14:27:18;96926.03;;;19.69;39.11
20160;BME280;50187;50.492;12.134;2023-11-19T14:30:05;96943.75;;;19.71;38.90
20160;BME280;50187;50.492;12.134;2023-11-19T14:32:50;96938.16;;;19.73;38.99
20160;BME280;50187;50.492;12.134;2023-11-19T14:35:36;96940.19;;;19.71;39.28
20160;BME280;50187;50.492;12.134;2023-11-19T14:38:21;96941.22;;;19.70;39.25
20160;BME280;50187;50.492;12.134;2023-11-19T14:41:06;96929.41;;;19.71;39.12